Weather at Valle Del Conlara International Airport

Public forecast

Using degrees Celsius for public forecast. Weather courtesy of forecast.io.

Closest aviation weather report (METAR) to Valle Del Conlara International Airport

Closest report is Area De Material Airport, 62.9 nm (116.4 km) SE.

2024/02/27 01:00 (retrieved 28 minutes ago)

SAOC 270100Z 02004KT 9999 OVC020 22/20 Q1014

Closest aviation forecast (TAF) to Valle Del Conlara International Airport

Forecast is more than 6 hours old.

Closest forecast is Rubem Berta Airport, 447.0 nm (827.9 km) ENE.

2024/02/26 18:00 (retrieved 7 hours ago)

TAF SBUG 261500Z 2618/2706 08007KT 9999 SCT030 FEW035TCU TX33/2618Z TN24/2706Z TEMPO 2618/2624 10015G25KT 8000 TSRA SCT010 BKN030 FEW035CB RMK PDJ